Time;durP1;ratioP1;P1;durP2;ratioP2;P2;SDS_P1;SDS_P2;PMS_P1;PMS_P2;Temp;Humidity;BMP_temperature;BMP_pressure;BME280_temperature;BME280_humidity;BME280_pressure;Samples;Min_cycle;Max_cycle;Signal;HPM_P1;HPM_P2
2022/02/02 00:00:14;;;;;;;;;;;;;;;;;;349903;28;920;-77
2022/02/02 00:00:24;;;;;;;;;;;;;;;;;;350021;28;996;-77
2022/02/02 00:00:35;;;;;;;;;;;;;;;;;;351449;28;853;-77
2022/02/02 00:00:45;;;;;;;;;;;;;;;;;;351518;28;960;-77
2022/02/02 00:00:56;;;;;;;;;;;;;;;;;;351479;28;861;-77
2022/02/02 00:01:13;;;;;;;;;;;;;;;;;;350704;28;1824;-77
2022/02/02 00:01:37;;;;;;;;;;;;;;;;;;351398;28;1033;-77
2022/02/02 00:02:02;;;;;;;;;;;;;;;;;;351458;28;873;-77
2022/02/02 00:02:34;;;;;;;;;;;;;;;;;;351405;28;1019;-77
2022/02/02 00:02:58;;;;;;;;;;;;;;;;;;351409;28;849;-77
2022/02/02 00:03:10;;;;;;;;;;;;;;;;;;351538;28;948;-77
2022/02/02 00:03:22;;;;;;;;;;;;;;;;;;351512;28;948;-77
2022/02/02 00:03:33;;;;;;;;;;;;;;;;;;351525;28;877;-77
2022/02/02 00:03:48;;;;;;;;;;;;;;;;;;351454;28;924;-77
2022/02/02 00:04:00;;;;;;;;;;;;;;;;;;351526;28;782;-77
2022/02/02 00:04:13;;;;;;;;;;;;;;;;;;352406;28;1479;-77
2022/02/02 00:04:28;;;;;;;;;;;;;;;;;;352916;28;991;-77
2022/02/02 00:04:45;;;;;;;;;;;;;;;;;;352952;28;992;-77
2022/02/02 00:05:05;;;;;;;;;;;;;;;;;;352829;28;937;-77
2022/02/02 00:05:32;;;;;;;;;;;;;;;;;;351477;28;1028;-77
2022/02/02 00:06:09;;;;;;;;;;;;;;;;;;351477;28;999;-77
2022/02/02 00:06:27;;;;;;;;;;;;;;;;;;351477;28;908;-77
2022/02/02 00:06:46;;;;;;;;;;;;;;;;;;351547;28;806;-77
2022/02/02 00:07:25;;;;;;;;;;;;;;;;;;351497;28;913;-77
2022/02/02 00:07:48;;;;;;;;;;;;;;;;;;352721;28;1751;-77
2022/02/02 00:08:19;;;;;;;;;;;;;;;;;;352938;28;1015;-77
2022/02/02 00:08:36;;;;;;;;;;;;;;;;;;353016;28;797;-77
2022/02/02 00:09:10;;;;;;;;;;;;;;;;;;352857;28;1036;-77
2022/02/02 00:09:19;;;;;;;;;;;;;;;;;;352597;28;1372;-77
2022/02/02 00:09:30;;;;;;;;;;;;;;;;;;352094;28;1666;-77
2022/02/02 00:09:49;;;;;;;;;;;;;;;;;;351510;28;925;-77
2022/02/02 00:10:12;;;;;;;;;;;;;;;;;;351424;28;960;-77
2022/02/02 00:12:19;;;;;;;;;;;;;;;;;;351534;28;920;-77
2022/02/02 00:12:49;;;;;;;;;;;;;;;;;;351464;28;948;-77
2022/02/02 00:13:26;;;;;;;;;;;;;;;;;;351440;28;936;-77
2022/02/02 00:13:54;;;;;;;;;;;;;;;;;;351526;28;980;-77
2022/02/02 00:14:23;;;;;;;;;;;;;;;;;;351320;28;1729;-77
2022/02/02 00:14:45;;;;;;;;;;;;;;;;;;351526;28;821;-77
2022/02/02 00:15:05;;;;;;;;;;;;;;;;;;351451;28;976;-77
2022/02/02 00:15:55;;;;;;;;;;;;;;;;;;351494;28;944;-77
2022/02/02 00:17:06;;;;;;;;;;;;;;;;;;351488;28;991;-77
2022/02/02 00:18:05;;;;;;;;;;;;;;;;;;347164;28;926;-77
2022/02/02 00:18:11;;;;;;;;;;;;;;;;;;351525;28;834;-77
2022/02/02 00:19:00;;;;;;;;;;;;;;;;;;347122;28;1068;-77
2022/02/02 00:19:05;;;;;;;;;;;;;;;;;;352300;28;1547;-77
2022/02/02 00:19:21;;;;;;;;;;;;;;;;;;352280;28;1677;-77
2022/02/02 00:19:58;;;;;;;;;;;;;;;;;;351612;28;1756;-77
2022/02/02 00:20:21;;;;;;;;;;;;;;;;;;352893;28;1004;-77
2022/02/02 00:20:38;;;;;;;;;;;;;;;;;;352930;28;956;-77
2022/02/02 00:20:56;;;;;;;;;;;;;;;;;;352926;28;1023;-77
2022/02/02 00:21:40;;;;;;;;;;;;;;;;;;351752;28;1607;-77
2022/02/02 00:21:52;;;;;;;;;;;;;;;;;;351384;28;1054;-77
2022/02/02 00:22:09;;;;;;;;;;;;;;;;;;351476;28;948;-77
2022/02/02 00:22:24;;;;;;;;;;;;;;;;;;349863;28;1297;-77
2022/02/02 00:22:38;;;;;;;;;;;;;;;;;;348663;28;944;-77
2022/02/02 00:22:51;;;;;;;;;;;;;;;;;;348629;28;1036;-77
2022/02/02 00:23:04;;;;;;;;;;;;;;;;;;348615;28;1676;-77
2022/02/02 00:23:17;;;;;;;;;;;;;;;;;;348651;28;900;-77
2022/02/02 00:23:34;;;;;;;;;;;;;;;;;;348571;28;902;-77
2022/02/02 00:23:49;;;;;;;;;;;;;;;;;;348602;28;985;-77
2022/02/02 00:24:04;;;;;;;;;;;;;;;;;;348651;28;821;-77
2022/02/02 00:24:42;;;;;;;;;;;;;;;;;;349142;28;945;-77
2022/02/02 00:25:03;;;;;;;;;;;;;;;;;;351511;28;845;-77
2022/02/02 00:25:19;;;;;;;;;;;;;;;;;;351572;28;1768;-77
2022/02/02 00:25:34;;;;;;;;;;;;;;;;;;352948;28;884;-77
2022/02/02 00:25:53;;;;;;;;;;;;;;;;;;352869;28;940;-77
2022/02/02 00:26:09;;;;;;;;;;;;;;;;;;352956;28;844;-77
2022/02/02 00:26:26;;;;;;;;;;;;;;;;;;352892;28;960;-77
2022/02/02 00:26:41;;;;;;;;;;;;;;;;;;352920;28;936;-77
2022/02/02 00:26:55;;;;;;;;;;;;;;;;;;352851;28;998;-77
2022/02/02 00:27:11;;;;;;;;;;;;;;;;;;352558;28;1694;-77
2022/02/02 00:27:23;;;;;;;;;;;;;;;;;;352843;28;959;-77
2022/02/02 00:27:36;;;;;;;;;;;;;;;;;;352611;28;1570;-77
2022/02/02 00:27:51;;;;;;;;;;;;;;;;;;352873;28;932;-77
2022/02/02 00:28:04;;;;;;;;;;;;;;;;;;352869;28;1068;-77
2022/02/02 00:28:14;;;;;;;;;;;;;;;;;;352899;28;928;-77
2022/02/02 00:28:29;;;;;;;;;;;;;;;;;;352799;28;924;-77
2022/02/02 00:28:44;;;;;;;;;;;;;;;;;;352851;28;1042;-77
2022/02/02 00:29:00;;;;;;;;;;;;;;;;;;352864;28;841;-77
2022/02/02 00:29:16;;;;;;;;;;;;;;;;;;352814;28;1815;-77
2022/02/02 00:29:33;;;;;;;;;;;;;;;;;;352755;28;1519;-77
2022/02/02 00:29:49;;;;;;;;;;;;;;;;;;351411;28;1014;-77
2022/02/02 00:30:02;;;;;;;;;;;;;;;;;;351519;28;841;-77
2022/02/02 00:30:18;;;;;;;;;;;;;;;;;;351490;28;952;-77
2022/02/02 00:30:33;;;;;;;;;;;;;;;;;;351478;28;952;-77
2022/02/02 00:30:43;;;;;;;;;;;;;;;;;;351454;28;960;-77
2022/02/02 00:30:55;;;;;;;;;;;;;;;;;;351480;28;957;-77
2022/02/02 00:31:09;;;;;;;;;;;;;;;;;;351404;28;1660;-77
2022/02/02 00:31:26;;;;;;;;;;;;;;;;;;351490;28;1012;-77
2022/02/02 00:31:42;;;;;;;;;;;;;;;;;;351474;28;984;-77
2022/02/02 00:32:02;;;;;;;;;;;;;;;;;;351460;28;1033;-77
2022/02/02 00:32:26;;;;;;;;;;;;;;;;;;351481;28;992;-77
2022/02/02 00:33:31;;;;;;;;;;;;;;;;;;351454;28;936;-77
2022/02/02 00:33:49;;;;;;;;;;;;;;;;;;351489;28;869;-77
2022/02/02 00:34:05;;;;;;;;;;;;;;;;;;351494;28;933;-77
2022/02/02 00:34:20;;;;;;;;;;;;;;;;;;351584;28;1670;-77
2022/02/02 00:34:31;;;;;;;;;;;;;;;;;;351498;28;1008;-77
2022/02/02 00:34:42;;;;;;;;;;;;;;;;;;351469;28;1024;-77
2022/02/02 00:34:52;;;;;;;;;;;;;;;;;;349880;28;988;-77
2022/02/02 00:35:03;;;;;;;;;;;;;;;;;;349947;28;1047;-77
2022/02/02 00:35:17;;;;;;;;;;;;;;;;;;350029;28;964;-77
2022/02/02 00:35:33;;;;;;;;;;;;;;;;;;349930;28;1906;-77
2022/02/02 00:35:53;;;;;;;;;;;;;;;;;;350012;28;936;-77
2022/02/02 00:36:09;;;;;;;;;;;;;;;;;;350009;28;881;-77
2022/02/02 00:36:26;;;;;;;;;;;;;;;;;;350891;28;1444;-77
2022/02/02 00:36:58;;;;;;;;;;;;;;;;;;351398;28;857;-77
2022/02/02 00:37:06;;;;;;;;;;;;;;;;;;352502;28;1027;-77
2022/02/02 00:37:18;;;;;;;;;;;;;;;;;;352840;28;1020;-77
2022/02/02 00:37:28;;;;;;;;;;;;;;;;;;352541;28;1319;-77
2022/02/02 00:37:38;;;;;;;;;;;;;;;;;;352853;28;991;-77
2022/02/02 00:37:48;;;;;;;;;;;;;;;;;;351254;28;1075;-77
2022/02/02 00:37:59;;;;;;;;;;;;;;;;;;351477;28;925;-77
2022/02/02 00:38:09;;;;;;;;;;;;;;;;;;351419;28;1686;-77
2022/02/02 00:38:19;;;;;;;;;;;;;;;;;;351497;28;782;-77
2022/02/02 00:38:29;;;;;;;;;;;;;;;;;;351309;28;1114;-77
2022/02/02 00:38:40;;;;;;;;;;;;;;;;;;351231;28;1273;-77
2022/02/02 00:38:52;;;;;;;;;;;;;;;;;;351484;28;987;-77
2022/02/02 00:39:03;;;;;;;;;;;;;;;;;;351571;28;1543;-77
2022/02/02 00:39:13;;;;;;;;;;;;;;;;;;352819;28;1490;-77
2022/02/02 00:39:24;;;;;;;;;;;;;;;;;;352893;28;939;-77
2022/02/02 00:39:34;;;;;;;;;;;;;;;;;;352762;28;1262;-77
2022/02/02 00:39:44;;;;;;;;;;;;;;;;;;352850;28;983;-77
2022/02/02 00:39:55;;;;;;;;;;;;;;;;;;352882;28;844;-77
2022/02/02 00:40:06;;;;;;;;;;;;;;;;;;351884;28;1693;-77
2022/02/02 00:40:16;;;;;;;;;;;;;;;;;;351495;28;936;-77
2022/02/02 00:40:26;;;;;;;;;;;;;;;;;;351473;28;995;-77
2022/02/02 00:40:37;;;;;;;;;;;;;;;;;;351411;28;1030;-77
2022/02/02 00:40:47;;;;;;;;;;;;;;;;;;351467;28;782;-77
2022/02/02 00:40:57;;;;;;;;;;;;;;;;;;351455;28;991;-77
2022/02/02 00:41:07;;;;;;;;;;;;;;;;;;351356;28;952;-77
2022/02/02 00:41:18;;;;;;;;;;;;;;;;;;351460;28;805;-77
2022/02/02 00:41:28;;;;;;;;;;;;;;;;;;351496;28;771;-77
2022/02/02 00:41:38;;;;;;;;;;;;;;;;;;351364;28;940;-77
2022/02/02 00:41:48;;;;;;;;;;;;;;;;;;351468;28;995;-77
2022/02/02 00:41:59;;;;;;;;;;;;;;;;;;351489;28;857;-77
2022/02/02 00:42:09;;;;;;;;;;;;;;;;;;351402;28;895;-77
2022/02/02 00:42:19;;;;;;;;;;;;;;;;;;351472;28;974;-77
2022/02/02 00:42:29;;;;;;;;;;;;;;;;;;351428;28;935;-77
2022/02/02 00:42:40;;;;;;;;;;;;;;;;;;351422;28;909;-77
2022/02/02 00:42:51;;;;;;;;;;;;;;;;;;351455;28;1027;-77
2022/02/02 00:43:01;;;;;;;;;;;;;;;;;;351534;28;769;-77
2022/02/02 00:43:12;;;;;;;;;;;;;;;;;;351384;28;779;-77
2022/02/02 00:43:22;;;;;;;;;;;;;;;;;;351493;28;896;-77
2022/02/02 00:43:32;;;;;;;;;;;;;;;;;;351474;28;932;-77
2022/02/02 00:43:46;;;;;;;;;;;;;;;;;;351405;28;854;-77
2022/02/02 00:43:59;;;;;;;;;;;;;;;;;;351282;28;1715;-77
2022/02/02 00:44:10;;;;;;;;;;;;;;;;;;351429;28;932;-77
2022/02/02 00:44:20;;;;;;;;;;;;;;;;;;351403;28;876;-77
2022/02/02 00:44:32;;;;;;;;;;;;;;;;;;351465;28;920;-77
2022/02/02 00:44:47;;;;;;;;;;;;;;;;;;351448;28;924;-77
2022/02/02 00:44:58;;;;;;;;;;;;;;;;;;351355;28;941;-77
2022/02/02 00:45:08;;;;;;;;;;;;;;;;;;351496;28;1029;-77
2022/02/02 00:45:19;;;;;;;;;;;;;;;;;;351411;28;904;-77
2022/02/02 00:45:42;;;;;;;;;;;;;;;;;;351292;28;1223;-77
2022/02/02 00:45:53;;;;;;;;;;;;;;;;;;351339;28;1683;-77
2022/02/02 00:46:03;;;;;;;;;;;;;;;;;;351337;28;1804;-77
2022/02/02 00:46:14;;;;;;;;;;;;;;;;;;351383;28;1648;-77
2022/02/02 00:46:27;;;;;;;;;;;;;;;;;;351481;28;767;-77
2022/02/02 00:46:37;;;;;;;;;;;;;;;;;;351447;28;951;-77
2022/02/02 00:46:47;;;;;;;;;;;;;;;;;;351334;28;1150;-77
2022/02/02 00:46:58;;;;;;;;;;;;;;;;;;351451;28;948;-77
2022/02/02 00:47:08;;;;;;;;;;;;;;;;;;351422;28;924;-77
2022/02/02 00:47:24;;;;;;;;;;;;;;;;;;351396;28;944;-77
2022/02/02 00:47:38;;;;;;;;;;;;;;;;;;351481;28;1019;-77
2022/02/02 00:47:51;;;;;;;;;;;;;;;;;;351397;28;881;-77
2022/02/02 00:48:02;;;;;;;;;;;;;;;;;;351444;28;940;-77
2022/02/02 00:48:13;;;;;;;;;;;;;;;;;;351464;28;991;-77
2022/02/02 00:48:28;;;;;;;;;;;;;;;;;;351465;28;773;-77
2022/02/02 00:48:38;;;;;;;;;;;;;;;;;;351497;28;801;-77
2022/02/02 00:48:51;;;;;;;;;;;;;;;;;;351291;28;1023;-77
2022/02/02 00:49:05;;;;;;;;;;;;;;;;;;351351;28;1835;-77
2022/02/02 00:49:15;;;;;;;;;;;;;;;;;;351478;28;864;-77
2022/02/02 00:49:25;;;;;;;;;;;;;;;;;;351356;28;994;-77
2022/02/02 00:49:36;;;;;;;;;;;;;;;;;;351447;28;996;-77
2022/02/02 00:49:48;;;;;;;;;;;;;;;;;;351444;28;987;-77
2022/02/02 00:49:58;;;;;;;;;;;;;;;;;;353727;27;4022;-77
2022/02/02 00:50:08;;;;;;;;;;;;;;;;;;354287;27;967;-77
2022/02/02 00:50:19;;;;;;;;;;;;;;;;;;353944;27;1132;-77
2022/02/02 00:50:29;;;;;;;;;;;;;;;;;;354120;27;848;-77
2022/02/02 00:50:39;;;;;;;;;;;;;;;;;;354204;27;1014;-77
2022/02/02 00:50:49;;;;;;;;;;;;;;;;;;354219;27;928;-77
2022/02/02 00:51:00;;;;;;;;;;;;;;;;;;351750;27;1580;-77
2022/02/02 00:51:15;;;;;;;;;;;;;;;;;;351304;28;789;-77
2022/02/02 00:51:28;;;;;;;;;;;;;;;;;;351329;28;852;-76
2022/02/02 00:51:44;;;;;;;;;;;;;;;;;;351316;28;944;-77
2022/02/02 00:51:58;;;;;;;;;;;;;;;;;;351289;28;852;-77
2022/02/02 00:52:08;;;;;;;;;;;;;;;;;;351317;28;956;-77
2022/02/02 00:52:19;;;;;;;;;;;;;;;;;;351314;28;821;-77
2022/02/02 00:52:29;;;;;;;;;;;;;;;;;;351207;28;1074;-77
2022/02/02 00:52:40;;;;;;;;;;;;;;;;;;351464;28;929;-77
2022/02/02 00:52:52;;;;;;;;;;;;;;;;;;351410;28;940;-77
2022/02/02 00:53:02;;;;;;;;;;;;;;;;;;351528;28;1757;-77
2022/02/02 00:53:13;;;;;;;;;;;;;;;;;;352815;28;1767;-77
2022/02/02 00:53:24;;;;;;;;;;;;;;;;;;351444;28;948;-77
2022/02/02 00:53:34;;;;;;;;;;;;;;;;;;351374;28;1003;-77
2022/02/02 00:53:44;;;;;;;;;;;;;;;;;;352026;28;1808;-77
2022/02/02 00:53:54;;;;;;;;;;;;;;;;;;352515;28;1554;-77
2022/02/02 00:54:05;;;;;;;;;;;;;;;;;;352829;28;782;-77
2022/02/02 00:54:23;;;;;;;;;;;;;;;;;;352802;28;868;-77
2022/02/02 00:54:33;;;;;;;;;;;;;;;;;;352851;28;1011;-77
2022/02/02 00:54:43;;;;;;;;;;;;;;;;;;352804;28;932;-77
2022/02/02 00:54:53;;;;;;;;;;;;;;;;;;352861;28;987;-77
2022/02/02 00:55:04;;;;;;;;;;;;;;;;;;352847;28;944;-77
2022/02/02 00:55:14;;;;;;;;;;;;;;;;;;352246;28;1658;-77
2022/02/02 00:55:24;;;;;;;;;;;;;;;;;;351453;28;924;-77
2022/02/02 00:55:34;;;;;;;;;;;;;;;;;;351381;28;2058;-77
2022/02/02 00:55:45;;;;;;;;;;;;;;;;;;351318;28;972;-77
2022/02/02 00:55:56;;;;;;;;;;;;;;;;;;351310;28;769;-77
2022/02/02 00:56:07;;;;;;;;;;;;;;;;;;351293;28;932;-77
2022/02/02 00:56:17;;;;;;;;;;;;;;;;;;351283;28;948;-76
2022/02/02 00:56:27;;;;;;;;;;;;;;;;;;351289;28;909;-77
2022/02/02 00:56:37;;;;;;;;;;;;;;;;;;351200;28;1039;-77
2022/02/02 00:56:48;;;;;;;;;;;;;;;;;;351300;28;987;-77
2022/02/02 00:56:58;;;;;;;;;;;;;;;;;;351282;28;949;-76
2022/02/02 00:57:09;;;;;;;;;;;;;;;;;;351059;28;1091;-77
2022/02/02 00:57:19;;;;;;;;;;;;;;;;;;351447;28;943;-77
2022/02/02 00:57:29;;;;;;;;;;;;;;;;;;351472;28;1020;-77
2022/02/02 00:57:40;;;;;;;;;;;;;;;;;;351423;28;936;-77
2022/02/02 00:57:50;;;;;;;;;;;;;;;;;;351293;28;1115;-77
2022/02/02 00:58:00;;;;;;;;;;;;;;;;;;351406;28;963;-77
2022/02/02 00:58:11;;;;;;;;;;;;;;;;;;351352;28;932;-77
2022/02/02 00:58:21;;;;;;;;;;;;;;;;;;351396;28;829;-77
2022/02/02 00:58:31;;;;;;;;;;;;;;;;;;351370;28;927;-77
2022/02/02 00:58:41;;;;;;;;;;;;;;;;;;351483;28;1023;-77
2022/02/02 00:58:51;;;;;;;;;;;;;;;;;;351323;28;1671;-77
2022/02/02 00:59:02;;;;;;;;;;;;;;;;;;351416;28;833;-77
2022/02/02 00:59:13;;;;;;;;;;;;;;;;;;351406;28;975;-77
2022/02/02 00:59:23;;;;;;;;;;;;;;;;;;351443;28;825;-77
2022/02/02 00:59:33;;;;;;;;;;;;;;;;;;351365;28;967;-77
2022/02/02 00:59:44;;;;;;;;;;;;;;;;;;351467;28;892;-77
2022/02/02 00:59:57;;;;;;;;;;;;;;;;;;351300;28;948;-78
2022/02/02 01:00:08;;;;;;;;;;;;;;;;;;351416;28;960;-77
2022/02/02 01:00:18;;;;;;;;;;;;;;;;;;351301;28;1084;-77
2022/02/02 01:00:29;;;;;;;;;;;;;;;;;;351460;28;945;-77
2022/02/02 01:00:39;;;;;;;;;;;;;;;;;;351383;28;917;-77
2022/02/02 01:00:49;;;;;;;;;;;;;;;;;;351448;28;841;-77
2022/02/02 01:01:00;;;;;;;;;;;;;;;;;;351354;28;1817;-77
2022/02/02 01:01:10;;;;;;;;;;;;;;;;;;351413;28;822;-77
2022/02/02 01:01:20;;;;;;;;;;;;;;;;;;351371;28;968;-78
2022/02/02 01:01:30;;;;;;;;;;;;;;;;;;351475;28;912;-77
2022/02/02 01:01:41;;;;;;;;;;;;;;;;;;351391;28;1131;-77
2022/02/02 01:01:51;;;;;;;;;;;;;;;;;;351444;28;1025;-77
2022/02/02 01:02:02;;;;;;;;;;;;;;;;;;351368;28;933;-77
2022/02/02 01:02:13;;;;;;;;;;;;;;;;;;351477;28;964;-77
2022/02/02 01:02:23;;;;;;;;;;;;;;;;;;351424;28;1145;-77
2022/02/02 01:02:34;;;;;;;;;;;;;;;;;;351428;28;947;-77
2022/02/02 01:02:44;;;;;;;;;;;;;;;;;;351397;28;979;-77
2022/02/02 01:02:54;;;;;;;;;;;;;;;;;;351422;28;1007;-77
2022/02/02 01:03:05;;;;;;;;;;;;;;;;;;351366;28;893;-77
2022/02/02 01:03:15;;;;;;;;;;;;;;;;;;351431;28;992;-77
2022/02/02 01:03:27;;;;;;;;;;;;;;;;;;351424;28;941;-77
2022/02/02 01:03:37;;;;;;;;;;;;;;;;;;351415;28;1000;-77
2022/02/02 01:03:48;;;;;;;;;;;;;;;;;;351421;28;971;-77
2022/02/02 01:03:58;;;;;;;;;;;;;;;;;;351321;28;1663;-77
2022/02/02 01:04:09;;;;;;;;;;;;;;;;;;351370;28;1018;-77
2022/02/02 01:04:19;;;;;;;;;;;;;;;;;;351427;28;1030;-77
2022/02/02 01:04:29;;;;;;;;;;;;;;;;;;351468;28;794;-77
2022/02/02 01:04:40;;;;;;;;;;;;;;;;;;351475;28;880;-77
2022/02/02 01:04:50;;;;;;;;;;;;;;;;;;351433;28;896;-77
2022/02/02 01:05:00;;;;;;;;;;;;;;;;;;351422;28;985;-77
2022/02/02 01:05:10;;;;;;;;;;;;;;;;;;351454;28;889;-77
2022/02/02 01:05:21;;;;;;;;;;;;;;;;;;351316;28;1003;-77
2022/02/02 01:05:31;;;;;;;;;;;;;;;;;;351412;28;921;-77
2022/02/02 01:05:41;;;;;;;;;;;;;;;;;;351357;28;928;-77
2022/02/02 01:05:51;;;;;;;;;;;;;;;;;;351339;28;1651;-77
2022/02/02 01:06:03;;;;;;;;;;;;;;;;;;352144;28;1803;-77
2022/02/02 01:06:17;;;;;;;;;;;;;;;;;;352810;28;936;-77
2022/02/02 01:06:30;;;;;;;;;;;;;;;;;;352862;28;931;-77
2022/02/02 01:06:49;;;;;;;;;;;;;;;;;;352834;28;845;-77
2022/02/02 01:09:10;;;;;;;;;;;;;;;;;;351271;28;842;-77
2022/02/02 01:09:38;;;;;;;;;;;;;;;;;;351402;28;995;-77
2022/02/02 01:10:01;;;;;;;;;;;;;;;;;;351470;28;956;-77
2022/02/02 01:10:19;;;;;;;;;;;;;;;;;;351462;28;825;-77
2022/02/02 01:10:39;;;;;;;;;;;;;;;;;;351372;28;1751;-77
2022/02/02 01:11:15;;;;;;;;;;;;;;;;;;351380;28;944;-77
2022/02/02 01:13:19;;;;;;;;;;;;;;;;;;351381;28;940;-77
2022/02/02 01:16:19;;;;;;;;;;;;;;;;;;351349;28;1965;-77
2022/02/02 01:17:34;;;;;;;;;;;;;;;;;;351433;28;865;-77
2022/02/02 01:18:12;;;;;;;;;;;;;;;;;;351442;28;793;-77
2022/02/02 01:18:36;;;;;;;;;;;;;;;;;;351248;28;1121;-77
2022/02/02 01:19:33;;;;;;;;;;;;;;;;;;351348;28;921;-77
2022/02/02 01:19:56;;;;;;;;;;;;;;;;;;351413;28;799;-77
2022/02/02 01:20:48;;;;;;;;;;;;;;;;;;352507;28;1815;-77
2022/02/02 01:21:04;;;;;;;;;;;;;;;;;;352795;28;996;-77
2022/02/02 01:21:30;;;;;;;;;;;;;;;;;;351702;28;1678;-77
2022/02/02 01:22:15;;;;;;;;;;;;;;;;;;351383;28;988;-77
2022/02/02 01:27:51;;;;;;;;;;;;;;;;;;352814;28;849;-77
2022/02/02 01:28:01;;;;;;;;;;;;;;;;;;352756;28;1000;-77
2022/02/02 01:28:12;;;;;;;;;;;;;;;;;;352814;28;801;-77
2022/02/02 01:28:23;;;;;;;;;;;;;;;;;;352438;28;1753;-76
2022/02/02 01:28:34;;;;;;;;;;;;;;;;;;352761;28;916;-77
2022/02/02 01:28:44;;;;;;;;;;;;;;;;;;352801;28;964;-77
2022/02/02 01:28:54;;;;;;;;;;;;;;;;;;352770;28;936;-77
2022/02/02 01:29:04;;;;;;;;;;;;;;;;;;352729;28;984;-77
2022/02/02 01:29:15;;;;;;;;;;;;;;;;;;352773;28;893;-77
2022/02/02 01:29:25;;;;;;;;;;;;;;;;;;352828;28;806;-77
2022/02/02 01:29:35;;;;;;;;;;;;;;;;;;352769;28;991;-77
2022/02/02 01:29:46;;;;;;;;;;;;;;;;;;352808;28;924;-77
2022/02/02 01:29:57;;;;;;;;;;;;;;;;;;352745;28;940;-77
2022/02/02 01:30:09;;;;;;;;;;;;;;;;;;352830;28;877;-76
2022/02/02 01:30:22;;;;;;;;;;;;;;;;;;352443;28;1647;-76
2022/02/02 01:30:32;;;;;;;;;;;;;;;;;;352837;28;959;-77
2022/02/02 01:30:43;;;;;;;;;;;;;;;;;;352750;28;873;-77
2022/02/02 01:30:54;;;;;;;;;;;;;;;;;;352829;28;959;-77
2022/02/02 01:31:05;;;;;;;;;;;;;;;;;;352708;28;932;-77
2022/02/02 01:31:16;;;;;;;;;;;;;;;;;;352758;28;965;-77
2022/02/02 01:31:27;;;;;;;;;;;;;;;;;;352764;28;931;-77
2022/02/02 01:31:37;;;;;;;;;;;;;;;;;;352829;28;793;-77
2022/02/02 01:31:47;;;;;;;;;;;;;;;;;;352689;28;980;-77
2022/02/02 01:31:57;;;;;;;;;;;;;;;;;;352833;28;964;-77
2022/02/02 01:32:08;;;;;;;;;;;;;;;;;;352406;28;1643;-77
2022/02/02 01:32:18;;;;;;;;;;;;;;;;;;351210;28;1804;-77
2022/02/02 01:32:28;;;;;;;;;;;;;;;;;;352753;28;945;-77
2022/02/02 01:32:38;;;;;;;;;;;;;;;;;;352814;28;833;-77
2022/02/02 01:32:49;;;;;;;;;;;;;;;;;;352813;28;924;-77
2022/02/02 01:32:59;;;;;;;;;;;;;;;;;;352744;28;765;-77
2022/02/02 01:33:09;;;;;;;;;;;;;;;;;;352825;28;834;-77
2022/02/02 01:33:19;;;;;;;;;;;;;;;;;;352788;28;932;-77
2022/02/02 01:33:30;;;;;;;;;;;;;;;;;;352794;28;1086;-77
2022/02/02 01:33:40;;;;;;;;;;;;;;;;;;352799;28;863;-77
2022/02/02 01:33:51;;;;;;;;;;;;;;;;;;352760;28;1042;-77
2022/02/02 01:34:01;;;;;;;;;;;;;;;;;;352807;28;925;-77
2022/02/02 01:34:11;;;;;;;;;;;;;;;;;;352305;28;1757;-77
2022/02/02 01:34:21;;;;;;;;;;;;;;;;;;352795;28;900;-77
2022/02/02 01:34:31;;;;;;;;;;;;;;;;;;352788;28;999;-77
2022/02/02 01:34:42;;;;;;;;;;;;;;;;;;352812;28;842;-77
2022/02/02 01:34:54;;;;;;;;;;;;;;;;;;352744;28;989;-77
2022/02/02 01:35:07;;;;;;;;;;;;;;;;;;352789;28;931;-77
2022/02/02 01:35:18;;;;;;;;;;;;;;;;;;352812;28;1014;-77
2022/02/02 01:35:28;;;;;;;;;;;;;;;;;;352223;28;1909;-77
2022/02/02 01:35:38;;;;;;;;;;;;;;;;;;351395;28;868;-77
2022/02/02 01:35:50;;;;;;;;;;;;;;;;;;351301;28;925;-77
2022/02/02 01:36:01;;;;;;;;;;;;;;;;;;351379;28;995;-77
2022/02/02 01:36:11;;;;;;;;;;;;;;;;;;351371;28;1004;-77
2022/02/02 01:36:21;;;;;;;;;;;;;;;;;;351396;28;964;-77
2022/02/02 01:36:38;;;;;;;;;;;;;;;;;;351370;28;1201;-77
2022/02/02 01:36:48;;;;;;;;;;;;;;;;;;351412;28;925;-77
2022/02/02 01:36:58;;;;;;;;;;;;;;;;;;351343;28;1113;-77
2022/02/02 01:37:09;;;;;;;;;;;;;;;;;;351471;28;1328;-77
2022/02/02 01:37:20;;;;;;;;;;;;;;;;;;352648;28;1428;-77
2022/02/02 01:37:31;;;;;;;;;;;;;;;;;;352803;28;853;-77
2022/02/02 01:37:42;;;;;;;;;;;;;;;;;;352644;28;1362;-77
2022/02/02 01:37:53;;;;;;;;;;;;;;;;;;351188;28;1047;-77
2022/02/02 01:38:04;;;;;;;;;;;;;;;;;;351367;28;861;-77
2022/02/02 01:38:14;;;;;;;;;;;;;;;;;;351398;28;1014;-77
2022/02/02 01:38:28;;;;;;;;;;;;;;;;;;351392;28;988;-77
2022/02/02 01:38:38;;;;;;;;;;;;;;;;;;351408;28;932;-77
2022/02/02 01:38:51;;;;;;;;;;;;;;;;;;351296;28;1039;-78
2022/02/02 01:39:04;;;;;;;;;;;;;;;;;;351422;28;825;-77
2022/02/02 01:39:16;;;;;;;;;;;;;;;;;;351371;28;1027;-77
2022/02/02 01:39:28;;;;;;;;;;;;;;;;;;351198;28;1182;-77
2022/02/02 01:39:39;;;;;;;;;;;;;;;;;;351221;28;976;-77
2022/02/02 01:39:57;;;;;;;;;;;;;;;;;;351128;28;1719;-76
2022/02/02 01:40:15;;;;;;;;;;;;;;;;;;351320;28;999;-77
2022/02/02 01:40:30;;;;;;;;;;;;;;;;;;351285;28;1023;-77
2022/02/02 01:40:46;;;;;;;;;;;;;;;;;;351173;28;896;-77
2022/02/02 01:41:01;;;;;;;;;;;;;;;;;;351125;28;1004;-77
2022/02/02 01:41:21;;;;;;;;;;;;;;;;;;351335;28;1003;-77
2022/02/02 01:41:33;;;;;;;;;;;;;;;;;;351360;28;884;-77
2022/02/02 01:41:45;;;;;;;;;;;;;;;;;;351330;28;1691;-77
2022/02/02 01:41:56;;;;;;;;;;;;;;;;;;351273;28;1022;-77
2022/02/02 01:42:11;;;;;;;;;;;;;;;;;;351378;28;929;-77
2022/02/02 01:42:22;;;;;;;;;;;;;;;;;;349841;28;1168;-77
2022/02/02 01:42:42;;;;;;;;;;;;;;;;;;349912;28;861;-77
2022/02/02 01:43:06;;;;;;;;;;;;;;;;;;349776;28;1739;-77
2022/02/02 01:43:22;;;;;;;;;;;;;;;;;;349955;28;920;-77
2022/02/02 01:43:37;;;;;;;;;;;;;;;;;;349764;28;1836;-77
2022/02/02 01:44:04;;;;;;;;;;;;;;;;;;349855;28;984;-77
2022/02/02 01:44:25;;;;;;;;;;;;;;;;;;350326;28;948;-77
2022/02/02 01:45:07;;;;;;;;;;;;;;;;;;351351;28;979;-77
2022/02/02 01:45:26;;;;;;;;;;;;;;;;;;351417;28;774;-77
2022/02/02 01:45:53;;;;;;;;;;;;;;;;;;351302;28;956;-77
2022/02/02 01:46:08;;;;;;;;;;;;;;;;;;351373;28;924;-77
2022/02/02 01:46:20;;;;;;;;;;;;;;;;;;351423;28;1015;-77
2022/02/02 01:46:33;;;;;;;;;;;;;;;;;;351329;28;1079;-77
2022/02/02 01:46:46;;;;;;;;;;;;;;;;;;351398;28;991;-77
2022/02/02 01:46:57;;;;;;;;;;;;;;;;;;351391;28;889;-77
2022/02/02 01:47:09;;;;;;;;;;;;;;;;;;351351;28;868;-77
2022/02/02 01:47:21;;;;;;;;;;;;;;;;;;351394;28;869;-77
2022/02/02 01:47:41;;;;;;;;;;;;;;;;;;351352;28;853;-77
2022/02/02 01:48:07;;;;;;;;;;;;;;;;;;351362;28;789;-77
2022/02/02 01:48:44;;;;;;;;;;;;;;;;;;351282;28;1706;-77
2022/02/02 01:50:23;;;;;;;;;;;;;;;;;;351372;28;913;-78
2022/02/02 01:51:34;;;;;;;;;;;;;;;;;;351334;28;1008;-77
2022/02/02 01:52:13;;;;;;;;;;;;;;;;;;351348;28;916;-78
2022/02/02 01:53:20;;;;;;;;;;;;;;;;;;352651;28;1285;-77
2022/02/02 01:54:36;;;;;;;;;;;;;;;;;;346990;28;1015;-77
2022/02/02 01:55:00;;;;;;;;;;;;;;;;;;345949;28;1882;-77
2022/02/02 01:55:16;;;;;;;;;;;;;;;;;;346119;28;1577;-77
2022/02/02 01:55:37;;;;;;;;;;;;;;;;;;347441;28;1584;-77
2022/02/02 01:55:48;;;;;;;;;;;;;;;;;;351269;28;1430;-76
2022/02/02 01:55:59;;;;;;;;;;;;;;;;;;351363;28;1030;-77
2022/02/02 01:56:11;;;;;;;;;;;;;;;;;;351119;28;1464;-77
2022/02/02 01:56:21;;;;;;;;;;;;;;;;;;351226;28;925;-78
2022/02/02 01:56:31;;;;;;;;;;;;;;;;;;351245;28;1020;-77
2022/02/02 01:56:42;;;;;;;;;;;;;;;;;;351332;28;932;-77
2022/02/02 01:56:52;;;;;;;;;;;;;;;;;;350991;28;1139;-77
2022/02/02 01:57:13;;;;;;;;;;;;;;;;;;351156;28;1150;-77
2022/02/02 01:58:10;;;;;;;;;;;;;;;;;;351293;28;814;-77
2022/02/02 01:59:02;;;;;;;;;;;;;;;;;;351353;28;798;-77
2022/02/02 01:59:26;;;;;;;;;;;;;;;;;;351304;28;999;-77
2022/02/02 01:59:40;;;;;;;;;;;;;;;;;;351267;28;936;-77
2022/02/02 01:59:50;;;;;;;;;;;;;;;;;;351162;28;932;-78
2022/02/02 02:00:00;;;;;;;;;;;;;;;;;;351271;28;928;-77
2022/02/02 02:00:11;;;;;;;;;;;;;;;;;;351162;28;1678;-77
2022/02/02 02:00:21;;;;;;;;;;;;;;;;;;351155;28;818;-77
2022/02/02 02:00:31;;;;;;;;;;;;;;;;;;351195;28;913;-77
2022/02/02 02:00:41;;;;;;;;;;;;;;;;;;351139;28;992;-77
2022/02/02 02:00:52;;;;;;;;;;;;;;;;;;351084;28;1130;-77
2022/02/02 02:01:02;;;;;;;;;;;;;;;;;;351307;28;956;-77
2022/02/02 02:01:12;;;;;;;;;;;;;;;;;;351340;28;868;-77
2022/02/02 02:01:23;;;;;;;;;;;;;;;;;;351332;28;952;-77
2022/02/02 02:01:33;;;;;;;;;;;;;;;;;;351147;28;995;-77
2022/02/02 02:01:43;;;;;;;;;;;;;;;;;;351393;28;897;-77
2022/02/02 02:01:53;;;;;;;;;;;;;;;;;;351390;28;971;-77
2022/02/02 02:02:04;;;;;;;;;;;;;;;;;;351343;28;1024;-78
2022/02/02 02:02:14;;;;;;;;;;;;;;;;;;351300;28;1678;-77
2022/02/02 02:02:24;;;;;;;;;;;;;;;;;;351259;28;873;-77
2022/02/02 02:02:35;;;;;;;;;;;;;;;;;;351755;28;1551;-77
2022/02/02 02:02:46;;;;;;;;;;;;;;;;;;351500;28;1799;-78
2022/02/02 02:02:56;;;;;;;;;;;;;;;;;;352732;28;952;-78
2022/02/02 02:03:06;;;;;;;;;;;;;;;;;;352774;28;1140;-77
2022/02/02 02:03:16;;;;;;;;;;;;;;;;;;352727;28;968;-77
2022/02/02 02:03:27;;;;;;;;;;;;;;;;;;352775;28;917;-78
2022/02/02 02:03:37;;;;;;;;;;;;;;;;;;352763;28;968;-77
2022/02/02 02:03:48;;;;;;;;;;;;;;;;;;352715;28;960;-78
2022/02/02 02:03:58;;;;;;;;;;;;;;;;;;352740;28;1043;-77
2022/02/02 02:04:08;;;;;;;;;;;;;;;;;;352737;28;1052;-77
2022/02/02 02:04:18;;;;;;;;;;;;;;;;;;352719;28;896;-77